Terminal Aerodrome Forecast
Issued by NWS

Home | Current Version | Previous Version | Text Only | Print | Product List | Glossary On
Versions: 1 2 3 4 5 6 7 8 9 10 11 12 13 14 15 16 17 18 19 20 21
000
FTUS43 KLSX 230800 AAB
TAFCPS
TAF AMD
KCPS 230836Z 2309/2406 17010KT P6SM BKN100
     FM231400 17010KT P6SM BKN025 OVC100
     FM231700 15010KT 3SM -RA OVC007=

USA.gov is the U.S. government's official web portal to all federal, state and local government web resources and services.